Tequesta, Florida
Current Conditions -  °F | °C
As of 7:47 AM on Thursday 27 Nov 2014 (Local Time) from KSUA Reporting Station
Clear Clear  
Wind Chill: 50°   Ceiling: Unl
Heat Index: 50°   Visibility: 10mi
Dew Point: 41°   Wind: 9mph
Humidity: 71%   Direction: 330°NNW
Pressure: 30.28"   Gusts: NA
Location:  26.9832°N, 80.1°W
Report Text: KSUA 271247Z 33008KT 10SM SKC 10/05 A3028
Loading
Personal Weather Stations






























Interactive Weather Map New forecast layout! Learn more

10-Day Weather Forecast

Advertisements
Track Severe Weather on mobile